sensor_id;sensor_type;location;lat;lon;timestamp;pressure;altitude;pressure_sealevel;temperature;humidity
60246;BME280;46107;53.356;-1.524;2024-02-16T00:01:01;97808.64;;;11.21;80.50
60246;BME280;46107;53.356;-1.524;2024-02-16T00:03:31;97815.31;;;10.97;81.48
60246;BME280;46107;53.356;-1.524;2024-02-16T00:05:59;97819.41;;;10.62;82.06
60246;BME280;46107;53.356;-1.524;2024-02-16T00:08:29;97816.03;;;11.65;77.26
60246;BME280;46107;53.356;-1.524;2024-02-16T00:10:56;97816.38;;;11.25;77.04
60246;BME280;46107;53.356;-1.524;2024-02-16T00:13:24;97827.43;;;11.95;77.52
60246;BME280;46107;53.356;-1.524;2024-02-16T00:15:51;97832.45;;;10.89;79.20
60246;BME280;46107;53.356;-1.524;2024-02-16T00:18:21;97836.94;;;10.76;78.17
60246;BME280;46107;53.356;-1.524;2024-02-16T00:20:49;97841.27;;;11.25;79.15
60246;BME280;46107;53.356;-1.524;2024-02-16T00:23:22;97835.00;;;11.50;77.02
60246;BME280;46107;53.356;-1.524;2024-02-16T00:25:49;97835.13;;;11.87;75.54
60246;BME280;46107;53.356;-1.524;2024-02-16T00:28:17;97837.29;;;11.56;76.23
60246;BME280;46107;53.356;-1.524;2024-02-16T00:30:45;97839.49;;;11.17;78.25
60246;BME280;46107;53.356;-1.524;2024-02-16T00:33:12;97849.18;;;10.81;81.02
60246;BME280;46107;53.356;-1.524;2024-02-16T00:35:39;97848.14;;;10.48;80.15
60246;BME280;46107;53.356;-1.524;2024-02-16T00:38:09;97851.48;;;11.46;78.81
60246;BME280;46107;53.356;-1.524;2024-02-16T00:40:38;97846.27;;;10.76;80.68
60246;BME280;46107;53.356;-1.524;2024-02-16T00:43:06;97843.06;;;11.78;76.44
60246;BME280;46107;53.356;-1.524;2024-02-16T00:45:33;97843.66;;;11.84;75.03
60246;BME280;46107;53.356;-1.524;2024-02-16T00:48:01;97850.01;;;10.69;79.16
60246;BME280;46107;53.356;-1.524;2024-02-16T00:50:28;97851.02;;;11.26;78.74
60246;BME280;46107;53.356;-1.524;2024-02-16T00:52:57;97845.87;;;11.94;76.53
60246;BME280;46107;53.356;-1.524;2024-02-16T00:55:24;97848.47;;;11.24;76.38
60246;BME280;46107;53.356;-1.524;2024-02-16T00:57:52;97858.73;;;10.81;80.06
60246;BME280;46107;53.356;-1.524;2024-02-16T01:00:21;97860.60;;;11.15;78.25
60246;BME280;46107;53.356;-1.524;2024-02-16T01:02:48;97864.03;;;11.56;75.16
60246;BME280;46107;53.356;-1.524;2024-02-16T01:05:16;97869.85;;;11.26;76.38
60246;BME280;46107;53.356;-1.524;2024-02-16T01:07:44;97863.13;;;12.74;71.52
60246;BME280;46107;53.356;-1.524;2024-02-16T01:10:12;97864.65;;;11.65;73.29
60246;BME280;46107;53.356;-1.524;2024-02-16T01:12:40;97856.78;;;11.55;73.38
60246;BME280;46107;53.356;-1.524;2024-02-16T01:15:08;97855.34;;;12.01;73.08
60246;BME280;46107;53.356;-1.524;2024-02-16T01:17:36;97854.87;;;12.70;69.20
60246;BME280;46107;53.356;-1.524;2024-02-16T01:20:05;97861.17;;;12.27;70.64
60246;BME280;46107;53.356;-1.524;2024-02-16T01:22:33;97861.59;;;13.14;68.53
60246;BME280;46107;53.356;-1.524;2024-02-16T01:25:00;97863.48;;;13.28;66.67
60246;BME280;46107;53.356;-1.524;2024-02-16T01:27:27;97865.97;;;13.10;67.45
60246;BME280;46107;53.356;-1.524;2024-02-16T01:29:55;97864.22;;;14.11;64.37
60246;BME280;46107;53.356;-1.524;2024-02-16T01:32:22;97860.11;;;14.29;62.83
60246;BME280;46107;53.356;-1.524;2024-02-16T01:34:50;97861.55;;;14.52;62.22
60246;BME280;46107;53.356;-1.524;2024-02-16T01:37:21;97859.92;;;14.55;60.51
60246;BME280;46107;53.356;-1.524;2024-02-16T01:39:49;97854.39;;;14.56;60.77
60246;BME280;46107;53.356;-1.524;2024-02-16T01:42:21;97853.77;;;14.59;60.66
60246;BME280;46107;53.356;-1.524;2024-02-16T01:44:49;97861.35;;;14.70;60.37
60246;BME280;46107;53.356;-1.524;2024-02-16T01:47:21;97866.50;;;14.75;59.92
60246;BME280;46107;53.356;-1.524;2024-02-16T01:49:49;97861.81;;;14.56;58.97
60246;BME280;46107;53.356;-1.524;2024-02-16T01:52:20;97854.18;;;14.23;59.56
60246;BME280;46107;53.356;-1.524;2024-02-16T01:54:48;97860.59;;;14.27;59.49
60246;BME280;46107;53.356;-1.524;2024-02-16T01:57:17;97850.50;;;13.93;61.73
60246;BME280;46107;53.356;-1.524;2024-02-16T01:59:46;97848.20;;;14.48;60.44
60246;BME280;46107;53.356;-1.524;2024-02-16T02:02:14;97845.31;;;14.67;58.54
60246;BME280;46107;53.356;-1.524;2024-02-16T02:04:42;97851.04;;;12.98;61.44
60246;BME280;46107;53.356;-1.524;2024-02-16T02:07:12;97857.08;;;13.47;60.60
60246;BME280;46107;53.356;-1.524;2024-02-16T02:09:39;97864.39;;;12.94;64.30
60246;BME280;46107;53.356;-1.524;2024-02-16T02:12:08;97860.59;;;14.08;61.90
60246;BME280;46107;53.356;-1.524;2024-02-16T02:14:35;97871.07;;;12.99;64.48
60246;BME280;46107;53.356;-1.524;2024-02-16T02:17:05;97876.39;;;13.11;64.94
60246;BME280;46107;53.356;-1.524;2024-02-16T02:19:36;97871.59;;;13.82;62.86
60246;BME280;46107;53.356;-1.524;2024-02-16T02:22:03;97864.78;;;13.47;63.64
60246;BME280;46107;53.356;-1.524;2024-02-16T02:24:30;97863.77;;;13.62;62.70
60246;BME280;46107;53.356;-1.524;2024-02-16T02:26:57;97865.43;;;13.78;62.94
60246;BME280;46107;53.356;-1.524;2024-02-16T02:29:25;97872.34;;;14.14;61.11
60246;BME280;46107;53.356;-1.524;2024-02-16T02:31:53;97885.17;;;13.31;64.09
60246;BME280;46107;53.356;-1.524;2024-02-16T02:34:20;97891.43;;;13.95;62.02
60246;BME280;46107;53.356;-1.524;2024-02-16T02:36:48;97893.73;;;13.56;62.97
60246;BME280;46107;53.356;-1.524;2024-02-16T02:39:20;97889.81;;;13.67;64.09
60246;BME280;46107;53.356;-1.524;2024-02-16T02:41:47;97883.33;;;14.01;62.65
60246;BME280;46107;53.356;-1.524;2024-02-16T02:44:21;97889.88;;;13.16;63.60
60246;BME280;46107;53.356;-1.524;2024-02-16T02:46:50;97888.10;;;12.68;66.06
60246;BME280;46107;53.356;-1.524;2024-02-16T02:49:22;97893.72;;;13.47;63.28
60246;BME280;46107;53.356;-1.524;2024-02-16T02:51:50;97900.52;;;13.53;63.09
60246;BME280;46107;53.356;-1.524;2024-02-16T02:54:21;97902.60;;;13.67;62.21
60246;BME280;46107;53.356;-1.524;2024-02-16T02:56:48;97912.90;;;13.03;65.44
60246;BME280;46107;53.356;-1.524;2024-02-16T02:59:21;97915.64;;;13.04;64.40
60246;BME280;46107;53.356;-1.524;2024-02-16T03:01:57;97915.76;;;13.76;61.85
60246;BME280;46107;53.356;-1.524;2024-02-16T03:04:24;97913.17;;;12.97;63.84
60246;BME280;46107;53.356;-1.524;2024-02-16T03:06:52;97903.53;;;12.92;64.27
60246;BME280;46107;53.356;-1.524;2024-02-16T03:09:21;97899.59;;;12.75;65.14
60246;BME280;46107;53.356;-1.524;2024-02-16T03:11:50;97895.46;;;13.34;63.52
60246;BME280;46107;53.356;-1.524;2024-02-16T03:14:21;97895.44;;;12.60;64.90
60246;BME280;46107;53.356;-1.524;2024-02-16T03:16:48;97900.46;;;13.23;63.77
60246;BME280;46107;53.356;-1.524;2024-02-16T03:19:16;97905.34;;;12.78;64.27
60246;BME280;46107;53.356;-1.524;2024-02-16T03:21:46;97904.48;;;13.88;60.83
60246;BME280;46107;53.356;-1.524;2024-02-16T03:24:13;97908.41;;;13.16;62.02
60246;BME280;46107;53.356;-1.524;2024-02-16T03:26:41;97910.46;;;13.75;61.28
60246;BME280;46107;53.356;-1.524;2024-02-16T03:29:08;97915.25;;;14.05;60.04
60246;BME280;46107;53.356;-1.524;2024-02-16T03:31:37;97916.86;;;14.58;57.91
60246;BME280;46107;53.356;-1.524;2024-02-16T03:34:04;97922.61;;;14.01;59.30
60246;BME280;46107;53.356;-1.524;2024-02-16T03:36:31;97926.29;;;15.06;57.21
60246;BME280;46107;53.356;-1.524;2024-02-16T03:39:01;97928.32;;;15.25;56.18
60246;BME280;46107;53.356;-1.524;2024-02-16T03:41:28;97929.69;;;14.56;57.70
60246;BME280;46107;53.356;-1.524;2024-02-16T03:43:56;97936.34;;;14.93;56.74
60246;BME280;46107;53.356;-1.524;2024-02-16T03:46:26;97937.15;;;15.07;56.80
60246;BME280;46107;53.356;-1.524;2024-02-16T03:48:54;97938.60;;;14.98;56.36
60246;BME280;46107;53.356;-1.524;2024-02-16T03:51:22;97940.29;;;14.92;57.22
60246;BME280;46107;53.356;-1.524;2024-02-16T03:53:50;97949.32;;;14.61;57.08
60246;BME280;46107;53.356;-1.524;2024-02-16T03:56:21;97954.32;;;14.16;57.59
60246;BME280;46107;53.356;-1.524;2024-02-16T03:58:48;97962.84;;;13.20;60.88
60246;BME280;46107;53.356;-1.524;2024-02-16T04:01:22;97958.15;;;13.62;59.76
60246;BME280;46107;53.356;-1.524;2024-02-16T04:03:50;97947.17;;;14.57;57.81
60246;BME280;46107;53.356;-1.524;2024-02-16T04:06:20;97944.38;;;14.18;58.26
60246;BME280;46107;53.356;-1.524;2024-02-16T04:08:47;97950.10;;;13.54;59.91
60246;BME280;46107;53.356;-1.524;2024-02-16T04:11:14;97953.70;;;13.73;60.83
60246;BME280;46107;53.356;-1.524;2024-02-16T04:13:41;97959.55;;;13.95;59.49
60246;BME280;46107;53.356;-1.524;2024-02-16T04:16:11;97965.58;;;12.79;62.45
60246;BME280;46107;53.356;-1.524;2024-02-16T04:18:38;97971.44;;;13.99;59.90
60246;BME280;46107;53.356;-1.524;2024-02-16T04:21:06;97974.71;;;13.56;61.64
60246;BME280;46107;53.356;-1.524;2024-02-16T04:23:33;97973.81;;;14.10;59.65
60246;BME280;46107;53.356;-1.524;2024-02-16T04:26:01;97974.64;;;13.63;59.48
60246;BME280;46107;53.356;-1.524;2024-02-16T04:28:29;97976.27;;;14.57;58.22
60246;BME280;46107;53.356;-1.524;2024-02-16T04:30:56;97975.59;;;14.60;58.36
60246;BME280;46107;53.356;-1.524;2024-02-16T04:33:25;97979.88;;;13.75;60.09
60246;BME280;46107;53.356;-1.524;2024-02-16T04:35:52;97980.75;;;13.67;61.21
60246;BME280;46107;53.356;-1.524;2024-02-16T04:38:20;97988.35;;;14.20;59.63
60246;BME280;46107;53.356;-1.524;2024-02-16T04:40:48;97993.39;;;13.49;61.84
60246;BME280;46107;53.356;-1.524;2024-02-16T04:43:21;97994.69;;;12.26;67.70
60246;BME280;46107;53.356;-1.524;2024-02-16T04:45:50;97991.40;;;12.50;67.06
60246;BME280;46107;53.356;-1.524;2024-02-16T04:48:17;97996.26;;;12.35;67.87
60246;BME280;46107;53.356;-1.524;2024-02-16T04:50:53;97999.57;;;12.72;68.28
60246;BME280;46107;53.356;-1.524;2024-02-16T04:53:21;98012.66;;;11.49;72.32
60246;BME280;46107;53.356;-1.524;2024-02-16T04:55:48;98018.87;;;11.51;72.60
60246;BME280;46107;53.356;-1.524;2024-02-16T04:58:20;98025.61;;;12.32;69.73
60246;BME280;46107;53.356;-1.524;2024-02-16T05:00:47;98030.40;;;11.11;73.21
60246;BME280;46107;53.356;-1.524;2024-02-16T05:03:18;98032.37;;;11.51;73.29
60246;BME280;46107;53.356;-1.524;2024-02-16T05:05:46;98035.36;;;11.35;74.09
60246;BME280;46107;53.356;-1.524;2024-02-16T05:08:22;98035.35;;;11.88;71.52
60246;BME280;46107;53.356;-1.524;2024-02-16T05:10:52;98038.52;;;11.23;74.68
60246;BME280;46107;53.356;-1.524;2024-02-16T05:13:20;98041.43;;;10.65;77.44
60246;BME280;46107;53.356;-1.524;2024-02-16T05:15:47;98045.20;;;11.94;71.45
60246;BME280;46107;53.356;-1.524;2024-02-16T05:18:18;98048.05;;;11.76;70.84
60246;BME280;46107;53.356;-1.524;2024-02-16T05:20:48;98053.22;;;12.25;68.63
60246;BME280;46107;53.356;-1.524;2024-02-16T05:23:14;98053.04;;;12.64;65.42
60246;BME280;46107;53.356;-1.524;2024-02-16T05:25:42;98061.92;;;11.84;68.01
60246;BME280;46107;53.356;-1.524;2024-02-16T05:28:09;98060.96;;;11.12;70.19
60246;BME280;46107;53.356;-1.524;2024-02-16T05:30:38;98060.75;;;11.39;69.76
60246;BME280;46107;53.356;-1.524;2024-02-16T05:33:06;98063.95;;;11.02;69.29
60246;BME280;46107;53.356;-1.524;2024-02-16T05:35:34;98067.33;;;10.70;69.29
60246;BME280;46107;53.356;-1.524;2024-02-16T05:38:01;98067.38;;;10.27;71.36
60246;BME280;46107;53.356;-1.524;2024-02-16T05:40:28;98065.20;;;11.29;68.38
60246;BME280;46107;53.356;-1.524;2024-02-16T05:42:58;98069.22;;;10.13;69.28
60246;BME280;46107;53.356;-1.524;2024-02-16T05:45:25;98074.62;;;10.11;70.55
60246;BME280;46107;53.356;-1.524;2024-02-16T05:47:54;98077.02;;;9.49;71.75
60246;BME280;46107;53.356;-1.524;2024-02-16T05:50:24;98077.26;;;10.25;72.38
60246;BME280;46107;53.356;-1.524;2024-02-16T05:52:51;98079.76;;;11.19;67.74
60246;BME280;46107;53.356;-1.524;2024-02-16T05:55:19;98089.88;;;10.76;67.37
60246;BME280;46107;53.356;-1.524;2024-02-16T05:57:48;98097.91;;;9.57;71.32
60246;BME280;46107;53.356;-1.524;2024-02-16T06:00:18;98096.18;;;10.12;70.32
60246;BME280;46107;53.356;-1.524;2024-02-16T06:02:45;98101.54;;;10.91;69.03
60246;BME280;46107;53.356;-1.524;2024-02-16T06:05:12;98100.05;;;10.07;70.30
60246;BME280;46107;53.356;-1.524;2024-02-16T06:07:41;98106.36;;;10.33;67.76
60246;BME280;46107;53.356;-1.524;2024-02-16T06:10:10;98109.21;;;10.40;67.32
60246;BME280;46107;53.356;-1.524;2024-02-16T06:12:38;98111.15;;;10.55;67.21
60246;BME280;46107;53.356;-1.524;2024-02-16T06:15:05;98111.33;;;10.37;66.87
60246;BME280;46107;53.356;-1.524;2024-02-16T06:17:33;98117.33;;;9.95;69.08
60246;BME280;46107;53.356;-1.524;2024-02-16T06:20:04;98116.46;;;10.63;66.61
60246;BME280;46107;53.356;-1.524;2024-02-16T06:22:31;98118.55;;;9.39;68.47
60246;BME280;46107;53.356;-1.524;2024-02-16T06:24:59;98119.26;;;9.31;68.61
60246;BME280;46107;53.356;-1.524;2024-02-16T06:27:26;98122.23;;;8.71;71.55
60246;BME280;46107;53.356;-1.524;2024-02-16T06:29:55;98124.07;;;8.86;72.21
60246;BME280;46107;53.356;-1.524;2024-02-16T06:32:23;98124.51;;;8.82;72.03
60246;BME280;46107;53.356;-1.524;2024-02-16T06:34:52;98130.18;;;9.18;70.49
60246;BME280;46107;53.356;-1.524;2024-02-16T06:37:20;98130.45;;;9.46;70.94
60246;BME280;46107;53.356;-1.524;2024-02-16T06:39:48;98136.66;;;8.23;75.69
60246;BME280;46107;53.356;-1.524;2024-02-16T06:42:18;98139.29;;;8.64;73.86
60246;BME280;46107;53.356;-1.524;2024-02-16T06:44:45;98146.11;;;8.02;75.01
60246;BME280;46107;53.356;-1.524;2024-02-16T06:47:12;98146.40;;;7.34;77.58
60246;BME280;46107;53.356;-1.524;2024-02-16T06:49:39;98159.43;;;8.02;77.94
60246;BME280;46107;53.356;-1.524;2024-02-16T06:52:10;98162.31;;;7.86;77.91
60246;BME280;46107;53.356;-1.524;2024-02-16T06:54:38;98166.75;;;8.06;78.07
60246;BME280;46107;53.356;-1.524;2024-02-16T06:57:08;98171.90;;;8.41;76.07
60246;BME280;46107;53.356;-1.524;2024-02-16T06:59:35;98176.04;;;7.84;76.73
60246;BME280;46107;53.356;-1.524;2024-02-16T07:02:14;98179.08;;;8.20;75.08
60246;BME280;46107;53.356;-1.524;2024-02-16T07:04:42;98176.22;;;7.90;75.20
60246;BME280;46107;53.356;-1.524;2024-02-16T07:07:09;98183.69;;;8.39;72.29
60246;BME280;46107;53.356;-1.524;2024-02-16T07:09:38;98188.30;;;8.23;73.50
60246;BME280;46107;53.356;-1.524;2024-02-16T07:12:07;98191.44;;;9.52;68.93
60246;BME280;46107;53.356;-1.524;2024-02-16T07:14:35;98189.34;;;9.44;67.88
60246;BME280;46107;53.356;-1.524;2024-02-16T07:17:03;98193.47;;;9.44;67.70
60246;BME280;46107;53.356;-1.524;2024-02-16T07:19:32;98201.79;;;8.61;70.94
60246;BME280;46107;53.356;-1.524;2024-02-16T07:22:00;98207.43;;;8.50;70.87
60246;BME280;46107;53.356;-1.524;2024-02-16T07:24:28;98207.13;;;9.51;66.69
60246;BME280;46107;53.356;-1.524;2024-02-16T07:26:59;98224.28;;;9.11;67.64
60246;BME280;46107;53.356;-1.524;2024-02-16T07:29:26;98221.11;;;10.09;64.31
60246;BME280;46107;53.356;-1.524;2024-02-16T07:31:54;98223.61;;;10.72;62.16
60246;BME280;46107;53.356;-1.524;2024-02-16T07:34:22;98232.98;;;10.58;60.71
60246;BME280;46107;53.356;-1.524;2024-02-16T07:36:50;98234.03;;;11.46;58.96
60246;BME280;46107;53.356;-1.524;2024-02-16T07:39:18;98236.40;;;10.71;60.09
60246;BME280;46107;53.356;-1.524;2024-02-16T07:41:46;98241.52;;;10.98;59.37
60246;BME280;46107;53.356;-1.524;2024-02-16T07:44:14;98244.63;;;11.01;58.74
60246;BME280;46107;53.356;-1.524;2024-02-16T07:46:42;98247.30;;;10.93;59.86
60246;BME280;46107;53.356;-1.524;2024-02-16T07:49:10;98247.96;;;10.48;61.61
60246;BME280;46107;53.356;-1.524;2024-02-16T07:51:37;98247.69;;;11.10;58.28
60246;BME280;46107;53.356;-1.524;2024-02-16T07:54:06;98253.19;;;11.66;56.43
60246;BME280;46107;53.356;-1.524;2024-02-16T07:56:34;98256.29;;;11.37;57.01
60246;BME280;46107;53.356;-1.524;2024-02-16T07:59:06;98263.35;;;11.27;57.85
60246;BME280;46107;53.356;-1.524;2024-02-16T08:01:34;98274.60;;;11.94;56.64
60246;BME280;46107;53.356;-1.524;2024-02-16T08:04:02;98274.49;;;12.05;55.08
60246;BME280;46107;53.356;-1.524;2024-02-16T08:06:29;98280.50;;;11.14;57.16
60246;BME280;46107;53.356;-1.524;2024-02-16T08:08:58;98284.64;;;10.61;59.65
60246;BME280;46107;53.356;-1.524;2024-02-16T08:11:25;98283.28;;;10.58;59.77
60246;BME280;46107;53.356;-1.524;2024-02-16T08:13:53;98282.41;;;11.42;60.14
60246;BME280;46107;53.356;-1.524;2024-02-16T08:16:23;98288.40;;;11.32;59.53
60246;BME280;46107;53.356;-1.524;2024-02-16T08:18:51;98292.13;;;10.72;60.71
60246;BME280;46107;53.356;-1.524;2024-02-16T08:21:18;98297.60;;;9.89;62.78
60246;BME280;46107;53.356;-1.524;2024-02-16T08:23:48;98298.55;;;10.26;62.77
60246;BME280;46107;53.356;-1.524;2024-02-16T08:26:16;98300.00;;;11.23;61.55
60246;BME280;46107;53.356;-1.524;2024-02-16T08:28:44;98301.55;;;11.50;61.47
60246;BME280;46107;53.356;-1.524;2024-02-16T08:31:15;98310.39;;;11.30;62.76
60246;BME280;46107;53.356;-1.524;2024-02-16T08:33:42;98311.63;;;11.26;61.94
60246;BME280;46107;53.356;-1.524;2024-02-16T08:36:10;98316.02;;;11.60;61.10
60246;BME280;46107;53.356;-1.524;2024-02-16T08:38:38;98320.62;;;10.72;66.30
60246;BME280;46107;53.356;-1.524;2024-02-16T08:41:07;98322.90;;;10.79;67.31
60246;BME280;46107;53.356;-1.524;2024-02-16T08:43:34;98334.32;;;9.91;69.19
60246;BME280;46107;53.356;-1.524;2024-02-16T08:46:02;98334.44;;;10.90;65.16
60246;BME280;46107;53.356;-1.524;2024-02-16T08:48:29;98334.25;;;10.82;64.98
60246;BME280;46107;53.356;-1.524;2024-02-16T08:50:58;98336.89;;;11.24;64.08
60246;BME280;46107;53.356;-1.524;2024-02-16T08:53:26;98336.17;;;11.25;67.05
60246;BME280;46107;53.356;-1.524;2024-02-16T08:55:53;98343.73;;;11.53;62.06
60246;BME280;46107;53.356;-1.524;2024-02-16T08:58:24;98347.62;;;11.72;61.61
60246;BME280;46107;53.356;-1.524;2024-02-16T09:00:52;98348.02;;;11.86;64.68
60246;BME280;46107;53.356;-1.524;2024-02-16T09:03:21;98349.44;;;11.60;62.56
60246;BME280;46107;53.356;-1.524;2024-02-16T09:05:48;98354.36;;;12.35;61.73
60246;BME280;46107;53.356;-1.524;2024-02-16T09:08:21;98356.80;;;11.87;62.08
60246;BME280;46107;53.356;-1.524;2024-02-16T09:10:50;98366.73;;;11.61;63.35
60246;BME280;46107;53.356;-1.524;2024-02-16T09:13:24;98364.67;;;13.10;60.34
60246;BME280;46107;53.356;-1.524;2024-02-16T09:15:52;98375.03;;;12.23;59.90
60246;BME280;46107;53.356;-1.524;2024-02-16T09:18:26;98381.67;;;12.65;59.93
60246;BME280;46107;53.356;-1.524;2024-02-16T09:20:53;98388.36;;;12.32;59.92
60246;BME280;46107;53.356;-1.524;2024-02-16T09:23:23;98389.78;;;12.46;59.51
60246;BME280;46107;53.356;-1.524;2024-02-16T09:25:52;98397.18;;;12.07;60.05
60246;BME280;46107;53.356;-1.524;2024-02-16T09:28:21;98408.23;;;12.49;59.52
60246;BME280;46107;53.356;-1.524;2024-02-16T09:30:56;98413.37;;;13.12;56.22
60246;BME280;46107;53.356;-1.524;2024-02-16T09:33:24;98416.37;;;12.94;57.94
60246;BME280;46107;53.356;-1.524;2024-02-16T09:36:11;98423.32;;;12.63;60.62
60246;BME280;46107;53.356;-1.524;2024-02-16T09:38:39;98429.02;;;11.97;59.57
60246;BME280;46107;53.356;-1.524;2024-02-16T09:41:07;98428.98;;;10.98;62.19
60246;BME280;46107;53.356;-1.524;2024-02-16T09:43:35;98434.01;;;12.77;59.18
60246;BME280;46107;53.356;-1.524;2024-02-16T09:46:07;98440.12;;;13.37;57.29
60246;BME280;46107;53.356;-1.524;2024-02-16T09:48:35;98443.31;;;12.95;58.21
60246;BME280;46107;53.356;-1.524;2024-02-16T09:51:05;98447.69;;;12.80;57.76
60246;BME280;46107;53.356;-1.524;2024-02-16T09:53:33;98449.08;;;11.88;61.19
60246;BME280;46107;53.356;-1.524;2024-02-16T09:56:00;98450.11;;;11.95;61.75
60246;BME280;46107;53.356;-1.524;2024-02-16T09:58:28;98452.80;;;11.86;62.74
60246;BME280;46107;53.356;-1.524;2024-02-16T10:00:55;98443.99;;;11.44;63.75
60246;BME280;46107;53.356;-1.524;2024-02-16T10:03:24;98450.17;;;12.26;62.17
60246;BME280;46107;53.356;-1.524;2024-02-16T10:06:09;98455.35;;;11.66;63.68
60246;BME280;46107;53.356;-1.524;2024-02-16T10:08:48;98458.10;;;12.40;60.56
60246;BME280;46107;53.356;-1.524;2024-02-16T10:11:16;98463.98;;;11.62;62.45
60246;BME280;46107;53.356;-1.524;2024-02-16T10:13:56;98456.58;;;12.45;61.38
60246;BME280;46107;53.356;-1.524;2024-02-16T10:16:25;98462.38;;;12.27;60.50
60246;BME280;46107;53.356;-1.524;2024-02-16T10:18:55;98464.54;;;12.46;59.16
60246;BME280;46107;53.356;-1.524;2024-02-16T10:21:25;98462.97;;;12.83;57.98
60246;BME280;46107;53.356;-1.524;2024-02-16T10:23:59;98458.54;;;11.99;61.25
60246;BME280;46107;53.356;-1.524;2024-02-16T10:26:30;98460.72;;;12.30;61.00
60246;BME280;46107;53.356;-1.524;2024-02-16T10:28:58;98465.33;;;12.07;60.31
60246;BME280;46107;53.356;-1.524;2024-02-16T10:31:26;98467.68;;;12.21;61.93
60246;BME280;46107;53.356;-1.524;2024-02-16T10:33:55;98466.45;;;11.68;63.20
60246;BME280;46107;53.356;-1.524;2024-02-16T10:36:26;98465.96;;;11.78;62.01
60246;BME280;46107;53.356;-1.524;2024-02-16T10:38:54;98466.19;;;11.10;62.73
60246;BME280;46107;53.356;-1.524;2024-02-16T10:41:26;98469.39;;;10.99;64.38
60246;BME280;46107;53.356;-1.524;2024-02-16T10:43:55;98477.30;;;10.83;66.66
60246;BME280;46107;53.356;-1.524;2024-02-16T10:46:23;98476.46;;;10.15;68.58
60246;BME280;46107;53.356;-1.524;2024-02-16T10:48:53;98480.30;;;10.91;67.61
60246;BME280;46107;53.356;-1.524;2024-02-16T10:51:29;98484.46;;;9.82;68.05
60246;BME280;46107;53.356;-1.524;2024-02-16T10:54:01;98487.83;;;11.68;64.79
60246;BME280;46107;53.356;-1.524;2024-02-16T10:56:34;98490.03;;;10.33;68.82
60246;BME280;46107;53.356;-1.524;2024-02-16T10:59:03;98499.73;;;10.05;69.71
60246;BME280;46107;53.356;-1.524;2024-02-16T11:01:36;98498.59;;;10.17;69.78
60246;BME280;46107;53.356;-1.524;2024-02-16T11:04:06;98509.79;;;10.36;68.99
60246;BME280;46107;53.356;-1.524;2024-02-16T11:06:56;98511.26;;;9.95;71.31
60246;BME280;46107;53.356;-1.524;2024-02-16T11:09:26;98522.22;;;10.68;70.28
60246;BME280;46107;53.356;-1.524;2024-02-16T11:11:54;98522.42;;;10.43;71.36
60246;BME280;46107;53.356;-1.524;2024-02-16T11:14:22;98538.88;;;10.90;69.11
60246;BME280;46107;53.356;-1.524;2024-02-16T11:16:53;98545.97;;;11.24;68.06
60246;BME280;46107;53.356;-1.524;2024-02-16T11:19:22;98551.84;;;10.43;71.75
60246;BME280;46107;53.356;-1.524;2024-02-16T11:21:56;98558.88;;;9.98;73.49
60246;BME280;46107;53.356;-1.524;2024-02-16T11:24:30;98563.28;;;10.43;70.90
60246;BME280;46107;53.356;-1.524;2024-02-16T11:27:02;98567.63;;;11.16;70.57
60246;BME280;46107;53.356;-1.524;2024-02-16T11:29:31;98575.05;;;11.73;68.90
60246;BME280;46107;53.356;-1.524;2024-02-16T11:32:00;98574.66;;;12.31;64.32
60246;BME280;46107;53.356;-1.524;2024-02-16T11:34:27;98586.66;;;11.02;67.42
60246;BME280;46107;53.356;-1.524;2024-02-16T11:36:55;98592.29;;;12.51;64.32
60246;BME280;46107;53.356;-1.524;2024-02-16T11:39:25;98589.03;;;12.55;63.84
60246;BME280;46107;53.356;-1.524;2024-02-16T11:42:00;98596.10;;;11.95;64.79
60246;BME280;46107;53.356;-1.524;2024-02-16T11:44:29;98592.69;;;12.36;61.08
60246;BME280;46107;53.356;-1.524;2024-02-16T11:46:56;98603.67;;;12.21;63.90
60246;BME280;46107;53.356;-1.524;2024-02-16T11:49:24;98607.04;;;11.64;64.15
60246;BME280;46107;53.356;-1.524;2024-02-16T11:51:52;98605.10;;;12.19;64.12
60246;BME280;46107;53.356;-1.524;2024-02-16T11:54:23;98610.95;;;11.35;65.00
60246;BME280;46107;53.356;-1.524;2024-02-16T11:56:52;98603.38;;;11.92;62.86
60246;BME280;46107;53.356;-1.524;2024-02-16T11:59:21;98604.40;;;12.09;64.32
60246;BME280;46107;53.356;-1.524;2024-02-16T12:01:51;98615.51;;;11.53;64.90
60246;BME280;46107;53.356;-1.524;2024-02-16T12:04:23;98615.92;;;11.48;64.97
60246;BME280;46107;53.356;-1.524;2024-02-16T12:06:52;98612.25;;;12.70;61.98
60246;BME280;46107;53.356;-1.524;2024-02-16T12:09:19;98616.59;;;11.68;63.10
60246;BME280;46107;53.356;-1.524;2024-02-16T12:11:49;98613.71;;;12.04;65.52
60246;BME280;46107;53.356;-1.524;2024-02-16T12:14:22;98609.94;;;13.49;59.76
60246;BME280;46107;53.356;-1.524;2024-02-16T12:16:50;98610.46;;;12.93;60.59
60246;BME280;46107;53.356;-1.524;2024-02-16T12:19:22;98618.26;;;12.73;61.61
60246;BME280;46107;53.356;-1.524;2024-02-16T12:21:51;98615.33;;;12.48;62.78
60246;BME280;46107;53.356;-1.524;2024-02-16T12:24:18;98622.66;;;13.60;60.04
60246;BME280;46107;53.356;-1.524;2024-02-16T12:26:46;98621.99;;;13.22;61.36
60246;BME280;46107;53.356;-1.524;2024-02-16T12:29:13;98625.16;;;13.63;61.12
60246;BME280;46107;53.356;-1.524;2024-02-16T12:31:41;98630.16;;;13.55;62.09
60246;BME280;46107;53.356;-1.524;2024-02-16T12:34:09;98624.50;;;12.40;60.38
60246;BME280;46107;53.356;-1.524;2024-02-16T12:36:36;98631.25;;;13.38;58.41
60246;BME280;46107;53.356;-1.524;2024-02-16T12:39:07;98642.69;;;11.71;62.40
60246;BME280;46107;53.356;-1.524;2024-02-16T12:41:35;98643.50;;;11.82;64.23
60246;BME280;46107;53.356;-1.524;2024-02-16T12:44:03;98633.15;;;12.92;62.40
60246;BME280;46107;53.356;-1.524;2024-02-16T12:46:31;98641.35;;;13.42;60.05
60246;BME280;46107;53.356;-1.524;2024-02-16T12:48:59;98638.93;;;12.95;60.51
60246;BME280;46107;53.356;-1.524;2024-02-16T12:51:26;98643.26;;;13.56;59.61
60246;BME280;46107;53.356;-1.524;2024-02-16T12:53:54;98648.13;;;13.78;58.77
60246;BME280;46107;53.356;-1.524;2024-02-16T12:56:21;98652.54;;;12.11;60.79
60246;BME280;46107;53.356;-1.524;2024-02-16T12:58:48;98654.86;;;12.15;60.16